CheckWX is a tool to help pilots better visualize weather data.  It is not intended as a substitute for an official pre-flight weather briefing.

09:42:13 UTC

OAHR TAF
Herat Airport
Afghanistan
TAF OAHR 200500Z 2006/2106 28006KT 9999 FEW090 BECMG 2008/2010 30009KT 9999 FEW050 SCT090 BECMG 2014/2016 05006KT 9999 FEW080 BECMG 2102/2104 06008KT 9999 SCT050 BKN080

Mar-20@
06:00 UTC

Mar-20 @ 06:00 UTC

Mar-20@
08:00 UTC

Mar-20 @ 08:00 UTC

TAF OAHR 200500Z 2006/2106 28006KT 9999 FEW090

Expired

Wind
  • 280° at 6 KTS
Cloud Levels
  • Few at 9,000' AGL

Mar-20@
08:00 UTC

Mar-20 @ 08:00 UTC

Mar-20@
14:00 UTC

Mar-20 @ 14:00 UTC

BECMG 2008/2010 30009KT 9999 FEW050 SCT090

Becoming

Becoming Conditions expected by Wed, Mar 20, 2019 @ 10:00 UTC

Wind
  • 300° at 9 KTS
Cloud Levels
  • Few at 5,000' AGL
  • Scattered at 9,000' AGL

Mar-20@
14:00 UTC

Mar-20 @ 14:00 UTC

Mar-21@
02:00 UTC

Mar-21 @ 02:00 UTC

BECMG 2014/2016 05006KT 9999 FEW080

Becoming

Becoming Conditions expected by Wed, Mar 20, 2019 @ 16:00 UTC

Wind
  • 050° at 6 KTS
Cloud Levels
  • Few at 8,000' AGL

Mar-21@
02:00 UTC

Mar-21 @ 02:00 UTC

Mar-21@
06:00 UTC

Mar-21 @ 06:00 UTC

BECMG 2102/2104 06008KT 9999 SCT050 BKN080

Becoming

Becoming Conditions expected by Thu, Mar 21, 2019 @ 04:00 UTC

Wind
  • 060° at 8 KTS
Cloud Levels
  • Scattered at 5,000' AGL
  • Broken at 8,000' AGL